createdAt,value
2022-08-24T00:07:52.283Z,99.90
2022-08-24T00:10:22.285Z,99.90
2022-08-24T00:12:51.096Z,99.90
2022-08-24T02:31:33.536Z,99.90
2022-08-24T02:34:02.037Z,99.90
2022-08-24T02:36:31.303Z,99.90
2022-08-24T02:38:59.670Z,99.90
2022-08-24T02:41:28.453Z,99.90
2022-08-24T02:43:58.304Z,99.90
2022-08-24T02:50:32.347Z,99.90
2022-08-24T02:53:00.677Z,99.90
2022-08-24T02:55:29.069Z,99.90
2022-08-24T02:57:57.394Z,99.90
2022-08-24T03:00:27.942Z,99.90
2022-08-24T03:02:56.507Z,99.90
2022-08-24T03:05:26.291Z,99.90
2022-08-24T03:07:54.655Z,99.90
2022-08-24T03:10:23.375Z,99.90
2022-08-24T03:12:52.240Z,99.90
2022-08-24T03:15:23.032Z,99.90
2022-08-24T03:17:52.894Z,99.90
2022-08-24T03:20:23.665Z,99.90
2022-08-24T03:22:52.664Z,99.90
2022-08-24T03:25:24.803Z,99.90
2022-08-24T03:27:53.936Z,99.90
2022-08-24T03:30:22.898Z,99.90
2022-08-24T03:32:52.833Z,99.90
2022-08-24T03:35:22.069Z,99.90
2022-08-24T03:37:51.752Z,99.90
2022-08-24T03:40:24.497Z,99.90
2022-08-24T03:42:54.656Z,99.90
2022-08-24T03:45:23.980Z,99.90
2022-08-24T03:47:53.890Z,99.90
2022-08-24T03:50:24.261Z,99.90
2022-08-24T03:52:53.073Z,99.90
2022-08-24T03:55:21.659Z,99.90
2022-08-24T03:57:50.079Z,99.90
2022-08-24T04:00:19.110Z,99.90
2022-08-24T04:02:47.457Z,99.90
2022-08-24T04:05:17.244Z,99.90
2022-08-24T04:07:45.543Z,99.90
2022-08-24T04:10:14.516Z,99.90
2022-08-24T04:12:42.824Z,99.90
2022-08-24T04:15:13.192Z,99.90
2022-08-24T04:17:41.526Z,99.90
2022-08-24T04:20:11.789Z,99.90
2022-08-24T04:22:41.642Z,99.90
2022-08-24T04:25:12.039Z,99.90
2022-08-24T04:27:42.019Z,99.90
2022-08-24T04:30:14.224Z,99.90
2022-08-24T04:32:43.244Z,99.90
2022-08-24T04:35:12.111Z,99.90
2022-08-24T04:37:41.844Z,99.90
2022-08-24T04:40:12.124Z,99.90
2022-08-24T04:42:40.489Z,99.90
2022-08-24T04:45:11.143Z,99.90
2022-08-24T04:47:39.526Z,99.90
2022-08-24T04:50:09.364Z,99.90
2022-08-24T04:52:38.132Z,99.90
2022-08-24T04:55:08.937Z,99.90
2022-08-24T04:57:37.727Z,99.90
2022-08-24T05:00:09.663Z,99.90
2022-08-24T05:02:44.686Z,99.90
2022-08-24T05:05:13.495Z,99.90
2022-08-24T05:07:41.963Z,99.90
2022-08-24T05:10:12.544Z,99.90
2022-08-24T05:12:42.110Z,99.90
2022-08-24T05:15:11.511Z,99.90
2022-08-24T05:17:41.069Z,99.90
2022-08-24T05:20:12.615Z,99.90
2022-08-24T05:22:40.998Z,99.90
2022-08-24T05:25:11.295Z,99.90
2022-08-24T05:27:39.656Z,99.90
2022-08-24T05:30:09.662Z,99.90
2022-08-24T05:32:38.214Z,99.90
2022-08-24T05:35:09.639Z,99.90
2022-08-24T05:37:39.598Z,99.90
2022-08-24T05:40:14.795Z,99.90
2022-08-24T05:42:43.813Z,99.90
2022-08-24T05:45:13.156Z,99.90
2022-08-24T05:47:41.563Z,99.90
2022-08-24T05:50:10.548Z,99.90
2022-08-24T05:52:39.056Z,99.90
2022-08-24T05:55:09.170Z,99.90
2022-08-24T05:57:39.127Z,99.90
2022-08-24T06:00:10.553Z,99.90
2022-08-24T06:02:38.974Z,99.90
2022-08-24T06:05:08.416Z,99.90
2022-08-24T06:07:36.867Z,99.90
2022-08-24T06:10:32.772Z,99.90
2022-08-24T06:12:55.469Z,99.90
2022-08-24T06:15:24.115Z,99.90
2022-08-24T06:17:52.639Z,99.90
2022-08-24T06:20:21.561Z,99.90
2022-08-24T06:22:49.911Z,99.90
2022-08-24T06:25:36.344Z,99.90
2022-08-24T06:28:06.119Z,99.90
2022-08-24T06:30:34.928Z,99.90
2022-08-24T06:33:04.430Z,99.90
2022-08-24T06:35:33.101Z,99.90
2022-08-24T06:38:01.465Z,99.90
2022-08-24T06:40:30.134Z,99.90
2022-08-24T06:43:05.306Z,99.90
2022-08-24T06:45:34.424Z,99.90
2022-08-24T06:48:02.807Z,99.90
2022-08-24T06:50:31.190Z,99.90
2022-08-24T06:53:00.699Z,99.90
2022-08-24T06:55:29.730Z,99.90
2022-08-24T06:57:59.079Z,99.90
2022-08-24T07:00:28.769Z,99.90
2022-08-24T07:02:57.267Z,99.90
2022-08-24T07:05:25.956Z,99.90
2022-08-24T07:07:54.751Z,99.90
2022-08-24T07:10:23.359Z,99.90
2022-08-24T07:12:56.331Z,99.90
2022-08-24T07:15:25.137Z,99.90
2022-08-24T07:17:54.864Z,99.90
2022-08-24T07:20:23.610Z,99.90
2022-08-24T07:22:52.346Z,99.90
2022-08-24T07:25:21.009Z,99.90
2022-08-24T07:27:49.535Z,99.90
2022-08-24T07:30:26.899Z,99.90
2022-08-24T07:32:58.731Z,99.90
2022-08-24T07:35:28.467Z,99.90
2022-08-24T07:37:57.168Z,99.90
2022-08-24T07:40:27.069Z,99.90
2022-08-24T07:42:58.029Z,99.90
2022-08-24T07:45:28.407Z,99.90
2022-08-24T07:48:05.553Z,99.90
2022-08-24T07:50:33.956Z,99.90
2022-08-24T07:53:02.453Z,99.90
2022-08-24T07:55:30.918Z,99.90
2022-08-24T07:58:02.171Z,99.90
2022-08-24T08:00:30.658Z,99.80
2022-08-24T08:03:02.554Z,99.90
2022-08-24T08:12:59.457Z,93.20
2022-08-24T21:28:38.023Z,89.30
2022-08-24T21:31:06.642Z,91.30
2022-08-24T21:33:53.019Z,91.80
2022-08-24T21:36:24.567Z,90.90
2022-08-24T21:38:54.650Z,90.40
2022-08-24T21:41:24.584Z,90.70
2022-08-24T21:43:53.662Z,91.50
2022-08-24T21:46:24.041Z,90.70
2022-08-24T21:48:52.388Z,91.50
2022-08-24T21:51:20.719Z,90.40
2022-08-24T21:53:49.036Z,91.60
2022-08-24T21:56:23.755Z,93.00
2022-08-24T21:58:54.180Z,92.20
2022-08-24T22:01:22.699Z,91.80
2022-08-24T22:03:51.071Z,93.50
2022-08-24T22:06:19.610Z,92.50
2022-08-24T22:08:48.136Z,92.20
2022-08-24T22:11:20.148Z,93.10
2022-08-24T22:13:48.675Z,93.40
2022-08-24T22:16:18.859Z,93.20
2022-08-24T22:18:47.197Z,91.40
2022-08-24T22:21:18.966Z,90.80
2022-08-24T22:23:47.412Z,92.30
2022-08-24T22:26:16.336Z,91.40
2022-08-24T22:28:44.677Z,92.50
2022-08-24T22:31:19.972Z,92.60
2022-08-24T22:33:48.799Z,91.90
2022-08-24T22:36:18.070Z,92.20
2022-08-24T22:38:47.367Z,92.60
2022-08-24T22:41:16.196Z,92.80
2022-08-24T22:44:02.447Z,92.50
2022-08-24T22:46:32.165Z,92.10
2022-08-24T22:49:01.543Z,92.30
2022-08-24T22:51:30.323Z,92.10
2022-08-24T22:53:59.423Z,92.10
2022-08-24T22:56:30.701Z,92.10
2022-08-24T22:58:59.293Z,90.80
2022-08-24T23:01:33.128Z,90.90
2022-08-24T23:04:04.820Z,90.90
2022-08-24T23:06:33.551Z,91.20
2022-08-24T23:09:01.905Z,91.00
2022-08-24T23:11:32.357Z,91.00
2022-08-24T23:14:03.279Z,90.90
2022-08-24T23:16:35.911Z,90.80
2022-08-24T23:19:21.954Z,90.70
2022-08-24T23:21:50.440Z,90.90
2022-08-24T23:24:18.791Z,91.30
2022-08-24T23:26:47.332Z,91.60
2022-08-24T23:29:17.082Z,91.80
2022-08-24T23:31:47.435Z,92.30
2022-08-24T23:34:17.329Z,92.80
2022-08-24T23:36:46.117Z,93.70
2022-08-24T23:39:14.645Z,94.10
2022-08-24T23:41:47.324Z,94.50
2022-08-24T23:44:20.584Z,94.40
2022-08-24T23:46:51.421Z,94.70
2022-08-24T23:49:22.548Z,94.90
2022-08-24T23:51:52.657Z,95.40
2022-08-24T23:54:22.399Z,95.70
2022-08-24T23:56:52.825Z,96.10
2022-08-24T23:59:24.356Z,96.40
